Time;durP1;ratioP1;P1;durP2;ratioP2;P2;SDS_P1;SDS_P2;PMS_P1;PMS_P2;Temp;Humidity;BMP_temperature;BMP_pressure;BME280_temperature;BME280_humidity;BME280_pressure;Samples;Min_cycle;Max_cycle;Signal;HPM_P1;HPM_P2
2021/08/24 05:57:54;;;;;;;;;38.00;33.00;;;;;14.90;100.00;102077.63;5070015;28;45536;-69
2021/08/24 06:00:19;;;;;;;;;41.75;35.00;;;;;15.18;99.53;102093.50;5057603;28;45799;-68
2021/08/24 06:02:46;;;;;;;;;39.75;30.75;;;;;15.44;97.99;102084.16;5058870;28;45481;-68
2021/08/24 06:05:11;;;;;;;;;37.50;33.00;;;;;15.70;97.22;102084.34;5053399;28;45470;-68
2021/08/24 06:07:37;;;;;;;;;36.25;30.75;;;;;15.94;96.24;102095.03;5053410;28;45460;-68
2021/08/24 06:10:04;;;;;;;;;37.75;32.75;;;;;16.12;95.35;102086.66;5055515;28;45189;-65
2021/08/24 06:12:29;;;;;;;;;41.00;32.75;;;;;16.31;94.76;102097.47;5055503;28;45560;-65
2021/08/24 06:14:55;;;;;;;;;35.00;31.00;;;;;16.47;94.09;102098.72;5055412;28;45510;-65
2021/08/24 06:17:20;;;;;;;;;33.50;30.50;;;;;16.61;93.69;102104.38;5052849;28;45442;-65
2021/08/24 06:19:45;;;;;;;;;34.50;31.75;;;;;16.76;92.76;102104.88;5055639;28;45373;-65
2021/08/24 06:22:11;;;;;;;;;32.75;24.50;;;;;16.85;92.59;102096.72;5055813;28;45323;-65
2021/08/24 06:24:37;;;;;;;;;38.25;31.25;;;;;16.92;91.64;102092.97;5055493;28;45530;-65
2021/08/24 06:27:05;;;;;;;;;37.75;30.25;;;;;16.98;91.34;102095.38;5053950;28;46139;-65
2021/08/24 06:29:30;;;;;;;;;30.50;26.50;;;;;17.07;91.50;102092.47;5055674;28;45355;-65
2021/08/24 06:31:59;;;;;;;;;35.25;32.50;;;;;17.11;89.66;102094.09;5064672;28;45177;-65
2021/08/24 06:34:24;;;;;;;;;38.00;33.00;;;;;17.17;90.93;102086.00;5055466;27;45571;-65
2021/08/24 06:36:52;;;;;;;;;36.75;30.50;;;;;17.21;89.82;102084.97;5050697;28;46340;-65
2021/08/24 06:39:18;;;;;;;;;34.75;30.75;;;;;17.24;90.16;102090.16;5055018;28;45366;-65
2021/08/24 06:41:43;;;;;;;;;38.75;33.25;;;;;17.28;89.87;102086.50;5055834;28;45327;-66
2021/08/24 06:44:11;;;;;;;;;38.50;32.00;;;;;17.36;89.65;102093.25;5054696;28;45402;-65
2021/08/24 06:46:37;;;;;;;;;35.25;32.50;;;;;17.35;89.38;102084.53;5055004;28;45547;-65
2021/08/24 06:49:02;;;;;;;;;37.50;33.00;;;;;17.38;88.93;102092.28;5055485;28;45426;-66
2021/08/24 06:51:28;;;;;;;;;33.25;29.25;;;;;17.43;88.72;102092.16;5045341;28;45225;-70
2021/08/24 06:53:54;;;;;;;;;35.25;32.25;;;;;17.46;88.04;102090.28;5054813;28;45236;-70
2021/08/24 06:56:19;;;;;;;;;40.50;33.00;;;;;17.51;88.83;102093.59;5062175;28;46043;-69
2021/08/24 06:58:47;;;;;;;;;37.00;31.00;;;;;17.55;88.15;102100.47;5074409;28;45554;-68
2021/08/24 07:01:18;;;;;;;;;36.75;29.00;;;;;17.62;87.97;102095.88;5073947;28;45514;-67
2021/08/24 07:03:44;;;;;;;;;33.75;30.75;;;;;17.70;87.61;102106.13;5075112;28;45520;-69
2021/08/24 07:06:10;;;;;;;;;41.00;33.00;;;;;17.76;87.63;102100.66;5074705;28;46138;-67
2021/08/24 07:08:35;;;;;;;;;34.50;30.25;;;;;17.84;86.83;102101.25;5065243;28;45371;-72
2021/08/24 07:11:00;;;;;;;;;35.50;30.25;;;;;17.90;86.96;102101.88;5061174;28;45262;-67
2021/08/24 07:13:28;;;;;;;;;32.75;29.50;;;;;17.92;85.58;102105.31;5061270;28;45494;-64
2021/08/24 07:15:54;;;;;;;;;34.00;30.75;;;;;18.01;85.77;102106.72;5056866;28;45318;-60
2021/08/24 07:18:19;;;;;;;;;26.50;21.00;;;;;18.10;86.82;102105.56;5061684;28;45328;-60
2021/08/24 07:20:49;;;;;;;;;34.50;29.50;;;;;18.18;86.43;102092.94;5061539;28;45351;-61
2021/08/24 07:23:14;;;;;;;;;35.25;31.50;;;;;18.25;85.58;102099.72;5052095;28;45333;-62
2021/08/24 07:25:39;;;;;;;;;38.75;31.75;;;;;18.36;86.07;102102.78;5061100;28;45283;-61
2021/08/24 07:28:10;;;;;;;;;41.00;33.00;;;;;18.45;85.35;102091.91;5061601;28;45438;-61
2021/08/24 07:30:40;;;;;;;;;23.75;21.50;;;;;18.51;84.42;102093.44;5045591;28;45312;-60
2021/08/24 07:33:06;;;;;;;;;29.50;26.25;;;;;18.55;85.38;102090.63;5061644;28;45351;-59
2021/08/24 07:35:31;;;;;;;;;30.75;30.00;;;;;18.61;84.51;102092.16;5060764;28;45452;-60
2021/08/24 07:37:57;;;;;;;;;30.75;29.50;;;;;18.69;84.24;102090.13;5061423;28;45313;-60
2021/08/24 07:40:23;;;;;;;;;29.50;26.75;;;;;18.77;83.54;102101.19;5060734;28;45271;-61
2021/08/24 07:42:49;;;;;;;;;32.25;29.25;;;;;18.82;83.36;102088.72;5061174;28;45462;-60
2021/08/24 07:45:15;;;;;;;;;34.25;31.50;;;;;18.93;83.37;102101.44;5060820;28;47415;-60
2021/08/24 07:47:40;;;;;;;;;37.00;30.25;;;;;19.02;83.51;102102.84;5061442;28;45289;-60
2021/08/24 07:50:06;;;;;;;;;37.25;30.25;;;;;19.11;83.20;102108.59;5069923;28;45419;-61
2021/08/24 07:52:31;;;;;;;;;34.75;30.00;;;;;19.18;82.06;102103.06;5053828;28;45554;-61
2021/08/24 07:54:57;;;;;;;;;31.75;28.25;;;;;19.24;81.18;102103.69;5060762;28;45221;-60
2021/08/24 07:57:22;;;;;;;;;27.75;27.50;;;;;19.34;80.59;102107.63;5060692;28;45415;-60
2021/08/24 07:59:48;;;;;;;;;29.00;26.25;;;;;19.44;81.58;102100.22;5060963;28;45498;-61
2021/08/24 08:02:16;;;;;;;;;25.75;24.00;;;;;19.55;81.49;102097.13;5060957;28;45272;-59
2021/08/24 08:04:42;;;;;;;;;28.75;24.25;;;;;19.65;81.20;102098.47;5060572;28;46053;-59
2021/08/24 08:07:07;;;;;;;;;27.25;25.25;;;;;19.73;80.44;102099.81;5060587;28;45307;-61
2021/08/24 08:09:33;;;;;;;;;26.25;25.50;;;;;19.75;79.99;102097.09;5060906;28;45310;-60
2021/08/24 08:11:58;;;;;;;;;22.75;22.75;;;;;19.83;80.03;102102.06;5060187;28;45597;-59
2021/08/24 08:14:23;;;;;;;;;27.00;24.75;;;;;19.86;79.12;102088.72;5060150;28;45323;-59
2021/08/24 08:16:49;;;;;;;;;28.75;25.75;;;;;19.89;78.67;102088.59;5060051;28;45399;-62
2021/08/24 08:19:14;;;;;;;;;25.25;22.50;;;;;19.94;78.63;102091.88;5059909;28;45404;-62
2021/08/24 08:21:40;;;;;;;;;24.75;22.75;;;;;20.04;78.40;102098.47;5060307;28;45373;-59
2021/08/24 08:24:07;;;;;;;;;23.75;21.00;;;;;20.11;76.90;102101.66;5059723;28;46653;-59
2021/08/24 08:26:33;;;;;;;;;23.75;23.25;;;;;20.15;78.03;102098.81;5060283;28;45719;-59
2021/08/24 08:29:03;;;;;;;;;21.25;20.25;;;;;20.23;78.24;102101.97;5060049;28;45241;-59
2021/08/24 08:31:29;;;;;;;;;20.00;19.75;;;;;20.32;77.16;102101.53;5058887;28;45487;-59
2021/08/24 08:33:54;;;;;;;;;20.50;15.25;;;;;20.46;76.39;102095.66;5061978;28;46361;-59
2021/08/24 08:36:19;;;;;;;;;17.75;17.75;;;;;20.63;75.82;102100.13;5059393;28;45378;-59
2021/08/24 08:38:45;;;;;;;;;23.25;20.50;;;;;20.79;75.20;102094.94;5059791;28;45462;-58
2021/08/24 08:41:22;;;;;;;;;18.75;18.75;;;;;20.88;75.79;102095.38;5060028;28;45434;-61
2021/08/24 08:44:01;;;;;;;;;19.50;18.75;;;;;20.89;73.73;102096.22;5046483;28;47014;-61
2021/08/24 08:46:51;;;;;;;;;18.25;15.75;;;;;20.92;73.50;102093.41;5058400;28;45264;-66
2021/08/24 08:49:44;;;;;;;;;15.25;13.00;;;;;20.90;70.61;102101.44;5059980;28;45471;-65
2021/08/24 08:52:28;;;;;;;;;20.50;17.25;;;;;20.92;71.33;102099.56;5055909;28;45392;-63
2021/08/24 08:55:35;;;;;;;;;20.25;16.25;;;;;21.01;72.59;102103.53;5058776;28;45474;-64
2021/08/24 08:58:16;;;;;;;;;15.00;10.50;;;;;21.01;72.60;102097.38;5055865;28;45767;-64
2021/08/24 09:00:48;;;;;;;;;17.50;15.75;;;;;21.06;69.71;102106.81;5057728;28;45522;-64
2021/08/24 09:03:22;;;;;;;;;14.50;11.00;;;;;21.17;70.17;102095.69;5059233;28;45596;-64
2021/08/24 09:05:48;;;;;;;;;14.00;11.75;;;;;21.28;69.70;102095.19;5059196;28;45272;-64
2021/08/24 09:08:18;;;;;;;;;14.25;14.25;;;;;21.35;69.74;102092.16;5059516;28;45583;-63
2021/08/24 09:10:49;;;;;;;;;15.25;15.25;;;;;21.39;70.66;102082.25;5056711;28;45570;-64
2021/08/24 09:13:33;;;;;;;;;15.00;12.50;;;;;21.39;66.22;102088.41;5057700;28;45549;-64
2021/08/24 09:16:12;;;;;;;;;15.25;14.00;;;;;21.45;67.74;102082.84;5055979;28;46378;-64
2021/08/24 09:18:50;;;;;;;;;14.75;13.50;;;;;21.48;68.05;102080.03;5051630;28;45756;-64
2021/08/24 09:21:29;;;;;;;;;15.00;14.00;;;;;21.61;68.71;102082.00;5058584;28;45368;-64
2021/08/24 09:23:56;;;;;;;;;12.00;11.75;;;;;21.66;67.26;102085.28;5058676;28;45478;-63
2021/08/24 09:26:59;;;;;;;;;17.25;10.00;;;;;21.73;65.13;102084.03;5059817;28;45446;-61
2021/08/24 09:29:33;;;;;;;;;10.50;10.50;;;;;21.80;65.05;102080.09;5036575;28;45437;-64
2021/08/24 09:32:01;;;;;;;;;9.75;6.25;;;;;21.84;65.15;102085.19;5039563;28;45276;-64
2021/08/24 09:34:32;;;;;;;;;8.00;7.00;;;;;21.87;63.68;102078.84;5039632;28;45521;-64
2021/08/24 09:36:57;;;;;;;;;10.50;10.25;;;;;21.95;63.53;102076.66;5034503;28;45400;-62
2021/08/24 09:39:45;;;;;;;;;9.25;8.25;;;;;22.14;61.03;102074.75;5039091;28;45249;-66
2021/08/24 09:42:11;;;;;;;;;7.50;5.00;;;;;22.20;58.75;102070.03;5038544;28;45484;-61
2021/08/24 09:44:36;;;;;;;;;10.75;10.50;;;;;22.27;61.56;102071.44;5038543;28;45691;-62
2021/08/24 09:47:06;;;;;;;;;8.00;8.00;;;;;22.39;58.72;102070.72;5038810;28;46718;-62
2021/08/24 09:49:41;;;;;;;;;9.50;8.25;;;;;22.48;61.24;102070.22;5039345;28;45288;-62
2021/08/24 09:52:12;;;;;;;;;8.00;8.00;;;;;22.52;57.58;102066.47;5045503;28;45308;-63
2021/08/24 09:54:49;;;;;;;;;7.00;7.00;;;;;22.57;58.17;102072.34;5039037;28;45327;-62
2021/08/24 09:57:22;;;;;;;;;11.00;9.50;;;;;22.66;56.74;102063.88;5038226;28;46161;-63
2021/08/24 10:00:02;;;;;;;;;9.00;8.00;;;;;22.76;56.30;102058.91;5036133;28;45364;-63
2021/08/24 10:02:28;;;;;;;;;11.00;9.25;;;;;;;;5036257;28;45213;-63
2021/08/24 10:04:56;;;;;;;;;11.00;8.00;;;;;22.99;53.47;102069.06;5039623;28;45620;-63
2021/08/24 10:07:52;;;;;;;;;6.25;6.25;;;;;23.01;54.55;102059.22;5046116;28;45683;-64
2021/08/24 10:10:24;;;;;;;;;9.00;7.00;;;;;22.92;54.26;102057.09;5018011;28;45517;-65
2021/08/24 10:12:52;;;;;;;;;7.75;7.00;;;;;23.07;52.10;102055.38;5037417;28;45222;-64
2021/08/24 10:15:31;;;;;;;;;8.25;8.25;;;;;23.24;53.07;102059.66;5036662;28;45432;-64
2021/08/24 10:18:24;;;;;;;;;11.50;8.75;;;;;23.49;54.62;102059.03;5035988;28;46127;-64
2021/08/24 10:21:18;;;;;;;;;8.50;7.75;;;;;23.49;51.74;102054.59;5037220;28;45420;-64
2021/08/24 10:23:58;;;;;;;;;10.75;9.50;;;;;23.48;50.61;102050.22;5004136;28;45525;-65
2021/08/24 10:26:32;;;;;;;;;6.00;6.00;;;;;23.51;50.42;102054.50;5036550;28;45238;-63
2021/08/24 10:29:00;;;;;;;;;7.50;6.75;;;;;23.59;49.67;102052.25;5035675;28;46198;-64
2021/08/24 10:31:31;;;;;;;;;9.50;8.00;;;;;23.64;49.14;102039.56;5038161;28;45294;-65
2021/08/24 10:33:59;;;;;;;;;10.25;8.00;;;;;23.67;48.88;102040.22;5037319;28;45456;-64
2021/08/24 10:36:46;;;;;;;;;11.50;7.75;;;;;23.71;49.22;102037.38;5036869;28;45586;-65
2021/08/24 10:39:31;;;;;;;;;7.25;7.00;;;;;23.67;49.77;102044.69;5036246;28;46373;-65
2021/08/24 10:42:02;;;;;;;;;7.50;6.75;;;;;23.59;49.32;102034.53;5036832;28;45544;-65
2021/08/24 10:44:35;;;;;;;;;5.00;4.50;;;;;23.50;47.68;102043.03;5041724;28;45221;-66
2021/08/24 10:47:00;;;;;;;;;3.50;3.50;;;;;23.51;46.29;102030.59;5040499;28;45405;-64
2021/08/24 10:49:26;;;;;;;;;5.00;4.50;;;;;23.50;46.06;102029.75;5042752;28;45412;-66
2021/08/24 10:51:57;;;;;;;;;5.25;4.00;;;;;23.50;39.56;102044.81;5041437;28;45434;-63
2021/08/24 10:54:29;;;;;;;;;0.75;0.00;;;;;23.62;41.64;102036.13;5041767;28;45345;-64
2021/08/24 10:57:04;;;;;;;;;5.25;5.00;;;;;23.90;42.32;102044.09;5043829;28;45430;-58
2021/08/24 10:59:39;;;;;;;;;7.00;5.25;;;;;24.07;42.85;102040.38;5047690;28;46078;-59
2021/08/24 11:02:33;;;;;;;;;4.50;4.25;;;;;24.27;41.33;102036.44;5049876;28;45416;-60
2021/08/24 11:05:15;;;;;;;;;3.00;3.00;;;;;24.53;40.34;102040.09;5041934;28;45341;-60
2021/08/24 11:08:13;;;;;;;;;5.25;5.25;;;;;24.77;40.31;102045.59;5041352;28;45293;-59
2021/08/24 11:10:47;;;;;;;;;6.75;4.25;;;;;24.93;37.63;102040.09;5034056;28;45555;-62
2021/08/24 11:13:38;;;;;;;;;5.00;5.00;;;;;25.06;40.28;102036.56;5038851;28;45414;-62
2021/08/24 11:16:28;;;;;;;;;4.50;4.00;;;;;25.14;39.16;102034.22;5041222;28;45323;-62
2021/08/24 11:19:26;;;;;;;;;5.50;5.00;;;;;25.20;41.29;102029.41;5041498;28;45159;-61
2021/08/24 11:22:17;;;;;;;;;6.25;6.25;;;;;25.03;39.24;102035.88;5042806;28;46119;-61
2021/08/24 11:25:44;;;;;;;;;7.25;6.50;;;;;25.00;40.74;102026.31;5046198;28;45511;-60
2021/08/24 11:28:35;;;;;;;;;5.00;5.00;;;;;24.99;37.76;102026.38;4957376;28;45354;-61
2021/08/24 11:31:10;;;;;;;;;3.00;3.00;;;;;25.03;36.58;102018.16;5010487;28;45544;-61
2021/08/24 11:33:52;;;;;;;;;8.75;6.00;;;;;25.14;38.52;102018.25;5041510;28;45380;-61
2021/08/24 11:36:29;;;;;;;;;6.00;4.75;;;;;25.20;39.58;102024.09;5032854;28;45344;-60
2021/08/24 11:39:08;;;;;;;;;6.00;5.00;;;;;25.08;40.81;102008.03;5039199;28;45443;-59
2021/08/24 11:41:38;;;;;;;;;6.00;6.00;;;;;25.02;40.45;102018.22;5035517;28;45261;-59
2021/08/24 11:44:08;;;;;;;;;6.75;6.00;;;;;24.95;36.97;102017.78;5024612;28;46317;-59
2021/08/24 11:46:54;;;;;;;;;6.50;4.25;;;;;24.87;37.47;102030.75;5039740;28;45413;-59
2021/08/24 11:49:35;;;;;;;;;5.75;5.75;;;;;24.83;37.53;102029.25;5039442;28;45465;-59
2021/08/24 11:52:21;;;;;;;;;4.00;3.00;;;;;24.96;38.49;102024.78;5038709;28;45791;-59
2021/08/24 11:55:12;;;;;;;;;5.00;5.00;;;;;25.06;39.17;102020.59;5036351;28;46134;-59
2021/08/24 11:57:45;;;;;;;;;4.75;4.25;;;;;25.02;38.24;102016.41;5038585;28;45397;-60
2021/08/24 12:00:11;;;;;;;;;6.50;5.75;;;;;24.98;38.37;102017.56;5037841;28;45345;-60
2021/08/24 12:02:43;;;;;;;;;4.25;4.25;;;;;24.86;37.86;102013.94;5040232;28;45269;-59
2021/08/24 12:05:32;;;;;;;;;6.25;6.25;;;;;24.72;38.12;102018.47;5038211;28;45423;-58
2021/08/24 12:08:06;;;;;;;;;6.00;6.00;;;;;24.62;39.65;102014.69;5045486;28;45574;-64
2021/08/24 12:10:52;;;;;;;;;4.25;4.25;;;;;24.51;38.07;102018.94;5039718;28;45363;-50
2021/08/24 12:13:46;;;;;;;;;8.00;5.25;;;;;24.52;39.00;102025.94;5039455;28;45455;-54
2021/08/24 12:16:38;;;;;;;;;6.50;5.00;;;;;24.70;38.31;102017.72;5036167;28;46966;-58
2021/08/24 12:19:34;;;;;;;;;7.00;6.25;;;;;24.87;35.74;101998.84;5034685;28;45546;-59
2021/08/24 12:22:25;;;;;;;;;7.25;4.50;;;;;25.20;39.02;101994.84;5019175;28;45441;-61
2021/08/24 12:24:58;;;;;;;;;8.75;6.50;;;;;25.49;37.16;101991.00;5038768;28;45597;-57
2021/08/24 12:27:26;;;;;;;;;2.75;2.25;;;;;25.68;38.66;101995.91;5037884;28;46354;-57
2021/08/24 12:30:05;;;;;;;;;6.75;6.25;;;;;25.80;38.37;102003.00;5041735;28;45239;-56
2021/08/24 12:32:30;;;;;;;;;7.00;6.00;;;;;25.74;35.17;101991.00;5040262;28;45524;-60
2021/08/24 12:35:28;;;;;;;;;7.50;5.25;;;;;25.50;36.71;101998.03;5039913;28;45483;-56
2021/08/24 12:37:56;;;;;;;;;6.25;5.50;;;;;25.34;37.38;101994.72;5039832;28;46558;-58
2021/08/24 12:40:24;;;;;;;;;5.00;5.00;;;;;25.24;37.16;101991.88;5017576;28;45436;-57
2021/08/24 12:43:02;;;;;;;;;6.00;5.75;;;;;25.20;37.54;101990.38;5038604;28;45238;-56
2021/08/24 12:45:30;;;;;;;;;7.75;7.00;;;;;25.21;36.96;101993.88;5037788;28;45507;-57
2021/08/24 12:48:13;;;;;;;;;6.00;3.50;;;;;25.23;36.04;102000.81;5039826;28;45277;-56
2021/08/24 12:50:38;;;;;;;;;3.00;3.00;;;;;25.17;35.13;101995.91;5039671;28;45305;-56
2021/08/24 12:53:28;;;;;;;;;6.00;5.67;;;;;25.20;36.39;101994.84;5040468;28;45241;-58
2021/08/24 12:55:56;;;;;;;;;5.00;5.00;;;;;25.14;34.78;101985.47;5023567;28;45485;-54
2021/08/24 12:58:29;;;;;;;;;4.00;4.00;;;;;25.17;35.79;101990.56;5039463;28;46345;-56
2021/08/24 13:01:25;;;;;;;;;4.25;3.50;;;;;25.20;37.04;101989.50;5038029;28;45664;-55
2021/08/24 13:03:57;;;;;;;;;6.50;4.25;;;;;25.21;35.35;101994.72;5039912;28;45376;-57
2021/08/24 13:06:30;;;;;;;;;4.00;4.00;;;;;25.27;35.99;101981.00;5038517;28;45400;-57
2021/08/24 13:09:30;;;;;;;;;0.50;0.25;;;;;25.31;35.69;101987.81;5037795;28;46381;-57
2021/08/24 13:12:18;;;;;;;;;5.25;4.50;;;;;25.56;35.82;101983.44;5023437;28;45927;-57
2021/08/24 13:14:52;;;;;;;;;3.25;2.25;;;;;25.78;35.83;101971.16;5039041;28;45476;-57
2021/08/24 13:17:46;;;;;;;;;3.50;3.50;;;;;25.80;35.01;101986.19;5022920;28;45605;-57
2021/08/24 13:20:29;;;;;;;;;5.50;5.00;;;;;25.94;35.00;101986.03;5021789;28;46262;-58
2021/08/24 13:23:00;;;;;;;;;8.00;5.50;;;;;26.00;35.03;101972.28;5036685;28;45440;-61
2021/08/24 13:25:29;;;;;;;;;7.75;5.25;;;;;26.03;34.99;101980.06;5034313;28;45470;-58
2021/08/24 13:27:59;;;;;;;;;4.75;4.50;;;;;25.95;35.10;101985.09;5038084;28;45439;-59
2021/08/24 13:30:29;;;;;;;;;5.75;3.00;;;;;25.84;35.05;101980.53;5038778;28;45331;-58
2021/08/24 13:32:59;;;;;;;;;5.00;5.00;;;;;25.84;35.60;101977.88;5014901;28;45443;-58
2021/08/24 13:35:33;;;;;;;;;4.25;4.00;;;;;25.76;34.76;101973.09;5034938;28;45462;-61
2021/08/24 13:38:10;;;;;;;;;7.25;4.50;;;;;25.74;35.15;101985.66;5039077;28;45308;-59
2021/08/24 13:40:36;;;;;;;;;7.00;6.50;;;;;25.72;35.20;101987.59;5048750;28;45364;-60
2021/08/24 13:43:02;;;;;;;;;6.00;5.75;;;;;25.70;34.50;101983.34;5039337;28;45625;-58
2021/08/24 13:45:31;;;;;;;;;5.00;5.00;;;;;25.75;34.82;101978.53;5039395;28;45296;-60
2021/08/24 13:48:00;;;;;;;;;7.25;6.00;;;;;25.85;35.87;101968.06;5039708;28;45385;-61
2021/08/24 13:50:31;;;;;;;;;8.25;6.00;;;;;25.90;34.04;101979.25;5047525;28;46382;-58
2021/08/24 13:53:05;;;;;;;;;8.25;5.00;;;;;25.92;34.21;101990.63;5038956;28;45465;-63
2021/08/24 13:55:34;;;;;;;;;5.50;4.00;;;;;25.91;34.76;101970.28;5038615;28;45265;-58
2021/08/24 13:58:33;;;;;;;;;4.75;4.75;;;;;25.83;33.99;101977.97;5038353;28;45480;-59
2021/08/24 14:01:04;;;;;;;;;7.00;4.50;;;;;25.75;34.83;101966.06;5037118;28;46312;-57
2021/08/24 14:03:32;;;;;;;;;6.75;6.75;;;;;25.74;34.01;101959.03;5020584;28;45458;-57
2021/08/24 14:06:02;;;;;;;;;4.00;4.00;;;;;25.86;34.37;101967.13;5037326;28;45495;-57
2021/08/24 14:08:30;;;;;;;;;10.00;5.25;;;;;25.95;34.31;101945.13;5017198;28;46104;-56
2021/08/24 14:10:58;;;;;;;;;5.00;5.00;;;;;25.88;35.37;101957.19;5037273;28;46387;-58
2021/08/24 14:13:24;;;;;;;;;6.75;6.75;;;;;25.78;33.72;101952.53;5037267;28;45615;-55
2021/08/24 14:15:53;;;;;;;;;5.00;5.00;;;;;25.85;34.86;101962.75;5037398;28;45234;-56
2021/08/24 14:18:24;;;;;;;;;6.50;5.25;;;;;25.95;34.48;101950.44;5038462;28;46353;-58
2021/08/24 14:21:05;;;;;;;;;4.00;4.00;;;;;26.16;34.26;101954.19;5040271;28;47095;-58
2021/08/24 14:23:38;;;;;;;;;9.00;4.25;;;;;26.14;31.22;101956.13;5041428;28;45713;-61
2021/08/24 14:26:06;;;;;;;;;6.00;4.75;;;;;26.08;33.44;101959.25;5039731;28;45290;-58
2021/08/24 14:28:43;;;;;;;;;4.75;4.00;;;;;26.20;34.35;101954.81;5040875;28;45420;-59
2021/08/24 14:31:17;;;;;;;;;4.25;4.25;;;;;26.42;33.01;101957.63;5039764;28;45376;-58
2021/08/24 14:33:45;;;;;;;;;5.25;5.00;;;;;26.36;33.13;101953.59;5033849;28;45593;-59
2021/08/24 14:36:24;;;;;;;;;5.00;3.25;;;;;26.48;33.58;101951.84;5039392;28;45368;-62
2021/08/24 14:38:52;;;;;;;;;4.00;4.00;;;;;27.04;31.59;101956.50;5039394;28;45440;-60
2021/08/24 14:41:24;;;;;;;;;5.00;4.00;;;;;27.71;33.50;101945.84;5040381;28;46138;-61
2021/08/24 14:44:13;;;;;;;;;3.00;2.00;;;;;28.25;31.14;101953.00;5039602;28;45714;-60
2021/08/24 14:46:47;;;;;;;;;4.00;1.75;;;;;28.72;30.59;101936.50;5039689;28;45303;-61
2021/08/24 14:49:31;;;;;;;;;4.00;3.00;;;;;29.59;29.31;101928.91;5040175;28;45553;-59
2021/08/24 14:51:58;;;;;;;;;5.00;5.00;;;;;30.57;28.26;101926.19;5039006;28;45531;-61
2021/08/24 14:54:31;;;;;;;;;3.50;2.50;;;;;31.17;25.50;101939.38;5038221;28;45686;-61
2021/08/24 14:57:28;;;;;;;;;3.00;3.00;;;;;30.55;26.74;101946.97;5038114;28;45351;-60
2021/08/24 15:00:24;;;;;;;;;5.25;4.25;;;;;30.04;27.90;101943.72;5039883;28;45655;-62
2021/08/24 15:02:54;;;;;;;;;6.00;5.50;;;;;30.69;26.98;101936.81;5039295;28;46072;-63
2021/08/24 15:05:29;;;;;;;;;3.25;3.25;;;;;31.37;25.54;101929.41;5041020;28;45629;-61
2021/08/24 15:08:21;;;;;;;;;5.75;5.00;;;;;31.92;25.20;101948.22;5038714;28;45389;-58
2021/08/24 15:10:46;;;;;;;;;4.00;4.00;;;;;32.31;25.57;101941.56;5039031;28;45459;-59
2021/08/24 15:13:21;;;;;;;;;5.33;4.67;;;;;32.86;25.81;101935.13;5038247;28;46477;-59
2021/08/24 15:15:48;;;;;;;;;2.00;1.50;;;;;33.57;25.78;101924.84;5038310;28;45451;-59
2021/08/24 15:18:21;;;;;;;;;5.25;3.50;;;;;34.24;24.94;101932.06;5039619;28;45443;-58
2021/08/24 15:20:55;;;;;;;;;5.75;5.75;;;;;34.82;20.89;101926.47;5039529;28;45630;-58
2021/08/24 15:23:20;;;;;;;;;2.75;2.75;;;;;35.69;23.46;101932.78;5037464;28;46140;-59
2021/08/24 15:25:45;;;;;;;;;4.00;3.00;;;;;36.54;21.03;101924.56;5039285;28;45451;-58
2021/08/24 15:28:14;;;;;;;;;1.75;1.75;;;;;37.48;20.43;101924.91;5024573;28;45342;-58
2021/08/24 15:30:39;;;;;;;;;3.00;3.00;;;;;38.27;20.64;101920.34;5039259;28;45349;-58
2021/08/24 15:33:24;;;;;;;;;3.00;3.00;;;;;38.86;19.36;101904.50;5039593;28;46505;-58
2021/08/24 15:35:49;;;;;;;;;2.75;2.75;;;;;38.61;16.90;101898.63;5038115;28;45431;-59
2021/08/24 15:38:15;;;;;;;;;2.00;2.00;;;;;38.05;16.99;101903.19;5039456;28;45486;-59
2021/08/24 15:40:45;;;;;;;;;4.75;3.25;;;;;37.89;16.50;101909.72;5039020;28;45532;-59
2021/08/24 15:43:23;;;;;;;;;4.00;2.50;;;;;38.14;19.09;101912.88;5040359;28;46000;-59
2021/08/24 15:45:49;;;;;;;;;5.50;3.50;;;;;38.79;17.81;101900.88;5041042;28;45627;-59
2021/08/24 15:48:14;;;;;;;;;3.00;3.00;;;;;39.22;16.72;101903.41;5037728;28;45404;-59
2021/08/24 15:50:40;;;;;;;;;8.00;4.25;;;;;39.68;15.75;101884.56;5020849;28;45410;-59
2021/08/24 15:53:06;;;;;;;;;4.00;3.00;;;;;39.69;17.88;101899.00;5013284;28;47031;-59
2021/08/24 15:55:35;;;;;;;;;5.25;3.50;;;;;39.93;17.45;101892.13;5040196;28;45577;-59
2021/08/24 15:58:01;;;;;;;;;3.50;2.00;;;;;40.26;17.68;101893.00;5040527;28;45297;-59
2021/08/24 16:00:28;;;;;;;;;4.50;3.00;;;;;40.60;15.82;101899.25;5035353;28;45568;-59
2021/08/24 16:02:54;;;;;;;;;3.00;3.00;;;;;41.00;16.14;101889.94;5037629;28;45578;-59
2021/08/24 16:05:23;;;;;;;;;3.50;3.50;;;;;41.58;16.02;101889.06;5040513;28;45816;-59
2021/08/24 16:07:48;;;;;;;;;1.00;1.00;;;;;42.28;13.92;101895.31;5040490;28;45430;-59
2021/08/24 16:10:14;;;;;;;;;3.25;2.00;;;;;43.00;14.61;101885.50;5039517;28;45245;-59
2021/08/24 16:12:39;;;;;;;;;2.75;1.50;;;;;43.60;14.39;101891.00;5040482;28;45348;-60
2021/08/24 16:15:06;;;;;;;;;3.50;3.50;;;;;44.00;13.11;101879.44;5040542;28;45246;-60
2021/08/24 16:17:31;;;;;;;;;2.00;2.00;;;;;43.95;14.30;101887.56;5040310;28;45321;-62
2021/08/24 16:19:56;;;;;;;;;3.00;3.00;;;;;44.19;14.26;101889.25;5040282;28;45319;-60
2021/08/24 16:22:38;;;;;;;;;3.75;2.00;;;;;42.61;13.50;101880.47;5014088;28;47009;-63
2021/08/24 16:25:10;;;;;;;;;1.00;1.00;;;;;42.74;14.61;101878.44;5035010;28;45650;-65
2021/08/24 16:27:37;;;;;;;;;4.00;1.50;;;;;42.60;13.29;101878.81;5013205;28;45452;-72
2021/08/24 16:30:04;;;;;;;;;3.75;2.25;;;;;42.69;15.13;101883.75;5041407;28;45467;-60
2021/08/24 16:32:29;;;;;;;;;4.50;1.50;;;;;43.06;12.79;101870.09;5041387;28;45288;-67
2021/08/24 16:34:55;;;;;;;;;3.00;3.00;;;;;42.95;14.96;101866.22;5039007;28;45487;-68
2021/08/24 16:37:21;;;;;;;;;3.50;2.75;;;;;42.68;14.42;101865.69;5022610;28;45471;-66
2021/08/24 16:39:50;;;;;;;;;4.25;4.00;;;;;42.77;12.27;101872.50;5039618;28;45574;-55
2021/08/24 16:42:17;;;;;;;;;1.25;0.00;;;;;43.06;13.43;101868.19;5039163;28;46279;-67
2021/08/24 16:44:42;;;;;;;;;4.00;3.25;;;;;43.62;14.44;101883.41;5038822;28;45530;-68
2021/08/24 16:47:08;;;;;;;;;5.00;4.00;;;;;44.02;13.47;101869.09;5037123;28;45542;-62
2021/08/24 16:49:33;;;;;;;;;3.00;3.00;;;;;44.64;12.70;101872.19;5046685;28;45400;-65
2021/08/24 16:51:58;;;;;;;;;5.00;4.00;;;;;44.74;12.72;101871.59;5038888;28;46196;-65
2021/08/24 16:54:24;;;;;;;;;4.00;4.00;;;;;42.55;13.79;101860.34;5029249;28;46386;-64
2021/08/24 16:56:49;;;;;;;;;5.00;4.00;;;;;38.61;14.55;101868.75;5038484;28;45434;-67
2021/08/24 16:59:14;;;;;;;;;2.25;1.50;;;;;35.17;16.69;101870.34;5040243;28;45222;-67
2021/08/24 17:01:40;;;;;;;;;4.00;2.50;;;;;32.85;19.62;101866.94;5016371;28;47102;-68
2021/08/24 17:04:05;;;;;;;;;3.75;3.75;;;;;31.23;21.54;101858.19;5040181;28;45270;-67
2021/08/24 17:06:30;;;;;;;;;8.75;5.50;;;;;30.02;22.91;101863.38;5039898;28;45356;-65
2021/08/24 17:08:56;;;;;;;;;5.00;3.75;;;;;28.98;23.32;101861.16;5021917;28;45550;-68
2021/08/24 17:11:21;;;;;;;;;6.00;6.00;;;;;28.28;25.04;101859.19;5039618;28;46333;-64
2021/08/24 17:13:47;;;;;;;;;4.00;4.00;;;;;27.79;25.36;101873.94;5039402;28;45320;-62
2021/08/24 17:16:12;;;;;;;;;1.75;1.75;;;;;27.40;25.71;101864.63;5037900;28;45451;-62
2021/08/24 17:18:37;;;;;;;;;5.00;5.00;;;;;26.91;27.64;101863.19;5038262;28;46151;-61
2021/08/24 17:21:03;;;;;;;;;5.50;5.00;;;;;26.58;27.25;101872.84;5037893;28;46134;-63
2021/08/24 17:23:29;;;;;;;;;8.00;6.25;;;;;26.23;27.47;101869.31;5038142;28;45318;-64
2021/08/24 17:25:59;;;;;;;;;7.00;6.75;;;;;25.99;28.46;101856.88;5038259;28;45258;-65
2021/08/24 17:28:28;;;;;;;;;7.00;7.00;;;;;25.74;28.50;101871.16;5038363;28;45294;-65
2021/08/24 17:30:54;;;;;;;;;5.50;5.25;;;;;25.58;30.30;101875.00;5037388;28;45409;-65
2021/08/24 17:33:20;;;;;;;;;5.75;5.75;;;;;25.39;29.71;101868.34;5019580;28;45576;-65
2021/08/24 17:35:47;;;;;;;;;6.75;6.75;;;;;25.24;30.77;101866.81;5037868;28;45337;-65
2021/08/24 17:38:12;;;;;;;;;8.50;5.75;;;;;25.11;30.87;101869.50;5037978;28;45377;-59
2021/08/24 17:40:38;;;;;;;;;5.25;5.00;;;;;24.99;31.36;101873.00;5037786;28;46246;-60